Time;durP1;ratioP1;P1;durP2;ratioP2;P2;SDS_P1;SDS_P2;PMS_P1;PMS_P2;Temp;Humidity;BMP_temperature;BMP_pressure;BME280_temperature;BME280_humidity;BME280_pressure;Samples;Min_cycle;Max_cycle;Signal;HPM_P1;HPM_P2
2023/01/05 00:00:00;;;;;;;;;;;;;;;9.31;100.00;98215.75;5117815;28;19935;-73
2023/01/05 00:02:29;;;;;;;;;;;;;;;9.24;100.00;98215.13;5118404;28;19924;-73
2023/01/05 00:04:55;;;;;;;;;;;;;;;9.17;100.00;98209.97;5098297;28;19955;-75
2023/01/05 00:07:22;;;;;;;;;;;;;;;9.17;100.00;98203.81;5096893;28;20520;-72
2023/01/05 00:09:48;;;;;;;;;;;;;;;9.13;100.00;98208.03;5116321;28;19940;-73
2023/01/05 00:23:14;;;;;;;;;;;;;;;9.04;100.00;98189.00;5114925;28;19932;-75
2023/01/05 00:25:41;;;;;;;;;;;;;;;9.13;100.00;98197.38;5106987;28;19991;-74
2023/01/05 00:28:07;;;;;;;;;;;;;;;9.27;100.00;98193.31;5118171;28;19974;-76
2023/01/05 00:30:35;;;;;;;;;;;;;;;9.10;100.00;98193.34;5118859;28;19924;-76
2023/01/05 00:33:03;;;;;;;;;;;;;;;9.08;100.00;98191.97;5115124;28;19983;-77
2023/01/05 00:35:29;;;;;;;;;;;;;;;9.01;100.00;98178.84;5097149;28;19966;-76
2023/01/05 00:37:56;;;;;;;;;;;;;;;9.23;100.00;98176.19;5099070;28;19950;-74
2023/01/05 00:40:22;;;;;;;;;;;;;;;9.11;100.00;98183.50;5121049;28;19963;-77
2023/01/05 00:42:49;;;;;;;;;;;;;;;9.33;100.00;98175.50;5117117;28;19963;-76
2023/01/05 00:45:17;;;;;;;;;;;;;;;9.23;100.00;98168.19;5114883;28;19959;-75
2023/01/05 00:47:44;;;;;;;;;;;;;;;9.06;100.00;98146.16;5096834;28;19928;-71
2023/01/05 00:50:13;;;;;;;;;;;;;;;9.17;100.00;98146.03;5117864;28;19951;-73
2023/01/05 00:52:39;;;;;;;;;;;;;;;9.25;100.00;98142.13;5117972;28;19924;-76
2023/01/05 00:55:06;;;;;;;;;;;;;;;9.14;100.00;98141.19;5097027;28;20230;-75
2023/01/05 00:57:32;;;;;;;;;;;;;;;9.13;100.00;98154.75;5114472;28;19967;-74
2023/01/05 01:00:00;;;;;;;;;;;;;;;9.33;100.00;98160.34;5117595;28;19920;-78
2023/01/05 01:02:27;;;;;;;;;;;;;;;9.08;100.00;98157.34;5118313;28;19924;-78
2023/01/05 01:04:53;;;;;;;;;;;;;;;9.26;100.00;98164.22;5098215;28;19968;-76
2023/01/05 01:07:21;;;;;;;;;;;;;;;9.25;100.00;98163.44;5114421;28;19960;-75
2023/01/05 01:09:47;;;;;;;;;;;;;;;9.30;100.00;98160.03;5115599;28;19931;-75
2023/01/05 01:12:14;;;;;;;;;;;;;;;9.18;100.00;98144.16;5118557;28;19965;-76
2023/01/05 01:14:40;;;;;;;;;;;;;;;9.30;100.00;98160.84;5118297;28;20356;-75
2023/01/05 01:17:07;;;;;;;;;;;;;;;9.35;100.00;98142.22;5096378;28;19956;-77
2023/01/05 01:19:33;;;;;;;;;;;;;;;9.21;100.00;98149.00;5096527;28;19958;-76
2023/01/05 01:22:00;;;;;;;;;;;;;;;9.27;100.00;98145.34;5117283;28;19934;-76
2023/01/05 01:24:28;;;;;;;;;;;;;;;9.22;100.00;98138.06;5111698;28;19940;-76
2023/01/05 01:26:55;;;;;;;;;;;;;;;9.24;100.00;98140.50;5115938;28;19928;-76
2023/01/05 01:29:21;;;;;;;;;;;;;;;9.25;100.00;98136.00;5097413;28;20031;-75
2023/01/05 01:31:49;;;;;;;;;;;;;;;9.24;100.00;98121.84;5119792;28;19927;-74
2023/01/05 01:34:15;;;;;;;;;;;;;;;9.24;100.00;98119.19;5103799;28;20065;-75
2023/01/05 01:36:41;;;;;;;;;;;;;;;9.14;100.00;98127.06;5103301;28;19963;-76
2023/01/05 01:39:08;;;;;;;;;;;;;;;9.20;100.00;98108.22;5099960;28;19970;-77
2023/01/05 01:41:36;;;;;;;;;;;;;;;9.25;100.00;98110.16;5099769;28;19978;-77
2023/01/05 01:44:02;;;;;;;;;;;;;;;9.32;100.00;98099.28;5121258;28;19973;-76
2023/01/05 01:46:28;;;;;;;;;;;;;;;9.22;100.00;98100.00;5103546;28;19951;-75
2023/01/05 01:48:57;;;;;;;;;;;;;;;9.39;100.00;98100.69;5119909;28;19967;-75
2023/01/05 01:51:27;;;;;;;;;;;;;;;9.28;100.00;98087.53;5100542;28;20091;-76
2023/01/05 01:53:56;;;;;;;;;;;;;;;9.29;100.00;98089.91;5103254;27;19920;-76
2023/01/05 01:56:24;;;;;;;;;;;;;;;9.32;100.00;98094.75;5104028;28;19963;-76
2023/01/05 01:58:52;;;;;;;;;;;;;;;9.41;100.00;98103.91;5120787;28;19919;-76
2023/01/05 02:01:19;;;;;;;;;;;;;;;9.33;100.00;98104.38;5118884;28;19947;-76
2023/01/05 02:03:45;;;;;;;;;;;;;;;9.34;100.00;98103.31;5101614;28;19987;-76
2023/01/05 02:06:12;;;;;;;;;;;;;;;9.39;100.00;98090.03;5104197;28;19923;-76
2023/01/05 02:08:38;;;;;;;;;;;;;;;9.31;100.00;98079.84;5104185;28;19933;-76
2023/01/05 02:11:13;;;;;;;;;;;;;;;9.35;100.00;98067.59;5110232;28;19963;-76
2023/01/05 02:13:45;;;;;;;;;;;;;;;9.55;100.00;98075.81;5094424;28;20004;-77
2023/01/05 02:16:19;;;;;;;;;;;;;;;9.55;100.00;98081.16;5092061;28;19936;-76
2023/01/05 02:18:53;;;;;;;;;;;;;;;9.38;100.00;98075.09;5099455;28;19924;-76
2023/01/05 02:21:30;;;;;;;;;;;;;;;9.36;100.00;98071.06;5091417;28;19935;-76
2023/01/05 02:24:14;;;;;;;;;;;;;;;9.38;100.00;98063.63;5109589;28;19928;-76
2023/01/05 02:26:51;;;;;;;;;;;;;;;9.38;100.00;98074.28;5118123;28;19924;-76
2023/01/05 02:29:38;;;;;;;;;;;;;;;9.39;100.00;98055.38;5117974;28;19932;-76
2023/01/05 02:32:11;;;;;;;;;;;;;;;9.44;100.00;98055.44;5109323;28;19975;-76
2023/01/05 02:34:41;;;;;;;;;;;;;;;9.39;100.00;98052.72;5108806;28;19955;-76
2023/01/05 02:37:10;;;;;;;;;;;;;;;9.52;100.00;98063.00;5108787;28;19983;-76
2023/01/05 02:39:41;;;;;;;;;;;;;;;9.48;100.00;98069.06;5102728;28;19935;-76
2023/01/05 02:42:10;;;;;;;;;;;;;;;9.44;100.00;98055.44;5116836;28;19962;-76
2023/01/05 02:44:36;;;;;;;;;;;;;;;9.45;100.00;98064.22;5117284;28;19948;-75
2023/01/05 02:47:04;;;;;;;;;;;;;;;9.43;100.00;98055.69;5120443;28;19959;-75
2023/01/05 02:49:33;;;;;;;;;;;;;;;9.41;100.00;98053.25;5120371;28;20316;-75
2023/01/05 02:52:01;;;;;;;;;;;;;;;9.29;100.00;98041.94;5099274;28;19963;-76
2023/01/05 02:54:29;;;;;;;;;;;;;;;9.49;100.00;98046.69;5105529;28;20103;-75
2023/01/05 02:56:58;;;;;;;;;;;;;;;9.58;100.00;98056.66;5099861;28;19927;-75
2023/01/05 02:59:27;;;;;;;;;;;;;;;9.50;100.00;98050.97;5099293;28;19983;-75
2023/01/05 03:01:56;;;;;;;;;;;;;;;9.62;100.00;98062.28;5119384;28;19944;-76
2023/01/05 03:04:25;;;;;;;;;;;;;;;9.54;100.00;98055.53;5120183;28;19951;-76
2023/01/05 03:06:55;;;;;;;;;;;;;;;9.68;100.00;98070.06;5118257;28;19991;-76
2023/01/05 03:09:24;;;;;;;;;;;;;;;9.47;100.00;98054.91;5116397;28;19972;-76
2023/01/05 03:14:42;;;;;;;;;;;;;;;9.53;100.00;98058.47;5119602;28;19924;-76
2023/01/05 03:17:12;;;;;;;;;;;;;;;9.50;100.00;98054.41;5116118;28;19924;-76
2023/01/05 03:19:39;;;;;;;;;;;;;;;9.51;100.00;98049.91;5098127;28;19950;-76
2023/01/05 03:36:00;;;;;;;;;;;;;;;9.42;100.00;98038.88;5118345;28;19950;-76
2023/01/05 03:38:30;;;;;;;;;;;;;;;9.50;100.00;98029.66;5101282;28;19990;-76
2023/01/05 03:40:58;;;;;;;;;;;;;;;9.65;100.00;98035.91;5098779;28;19924;-76
2023/01/05 03:43:25;;;;;;;;;;;;;;;9.60;100.00;98037.72;5115903;28;19995;-76
2023/01/05 03:45:53;;;;;;;;;;;;;;;9.54;100.00;98028.88;5118494;28;19971;-76
2023/01/05 03:48:20;;;;;;;;;;;;;;;9.51;100.00;98026.72;5102865;28;20548;-76
2023/01/05 03:50:47;;;;;;;;;;;;;;;9.46;100.00;98021.34;5118539;28;19943;-76
2023/01/05 03:53:13;;;;;;;;;;;;;;;9.62;100.00;98015.06;5114662;28;20073;-76
2023/01/05 03:55:41;;;;;;;;;;;;;;;9.51;100.00;98017.91;5098151;28;19951;-75
2023/01/05 03:58:07;;;;;;;;;;;;;;;9.46;100.00;98015.19;5116001;28;19983;-75
2023/01/05 04:00:34;;;;;;;;;;;;;;;9.44;100.00;98007.44;5097491;28;19987;-75
2023/01/05 04:03:00;;;;;;;;;;;;;;;9.51;100.00;97997.38;5100282;28;20008;-76
2023/01/05 04:05:26;;;;;;;;;;;;;;;9.46;100.00;97997.34;5134665;27;20012;-75
2023/01/05 04:07:53;;;;;;;;;;;;;;;9.68;100.00;97997.28;5098590;28;19959;-76
2023/01/05 04:10:20;;;;;;;;;;;;;;;9.48;100.00;97994.41;5115546;28;20021;-76
2023/01/05 04:12:48;;;;;;;;;;;;;;;9.54;100.00;97994.22;5115885;28;19931;-76
2023/01/05 04:15:14;;;;;;;;;;;;;;;9.62;100.00;98001.72;5099790;28;20134;-76
2023/01/05 04:17:41;;;;;;;;;;;;;;;9.70;100.00;97995.13;5099963;28;19951;-76
2023/01/05 04:20:08;;;;;;;;;;;;;;;9.52;100.00;97983.00;5115189;28;19962;-76
2023/01/05 04:22:34;;;;;;;;;;;;;;;9.64;100.00;97994.31;5096676;28;19966;-76
2023/01/05 04:25:00;;;;;;;;;;;;;;;9.64;100.00;98004.16;5114127;28;19928;-75
2023/01/05 04:27:27;;;;;;;;;;;;;;;9.62;100.00;97999.06;5114938;28;19971;-76
2023/01/05 04:29:54;;;;;;;;;;;;;;;9.71;100.00;97997.56;5098405;28;19924;-76
2023/01/05 04:32:21;;;;;;;;;;;;;;;9.75;100.00;98003.16;5118541;28;20039;-76
2023/01/05 04:34:47;;;;;;;;;;;;;;;9.66;100.00;98004.69;5119715;28;19991;-76
2023/01/05 04:37:13;;;;;;;;;;;;;;;9.73;100.00;98003.44;5097444;28;19991;-76
2023/01/05 04:39:40;;;;;;;;;;;;;;;9.74;100.00;98007.72;5115257;28;19967;-75
2023/01/05 04:42:06;;;;;;;;;;;;;;;9.72;100.00;98006.34;5100431;28;19931;-76
2023/01/05 04:44:33;;;;;;;;;;;;;;;9.66;100.00;98010.84;5134513;27;20443;-76
2023/01/05 04:47:00;;;;;;;;;;;;;;;9.63;100.00;98005.22;5097797;28;20466;-76
2023/01/05 04:49:27;;;;;;;;;;;;;;;9.70;100.00;98011.94;5115038;28;19924;-76
2023/01/05 04:51:53;;;;;;;;;;;;;;;9.65;100.00;98008.44;5116994;28;20031;-76
2023/01/05 04:54:19;;;;;;;;;;;;;;;9.67;100.00;98020.47;5128555;28;20030;-76
2023/01/05 04:56:46;;;;;;;;;;;;;;;9.69;100.00;98010.34;5096574;28;19995;-76
2023/01/05 04:59:12;;;;;;;;;;;;;;;9.74;100.00;98012.25;5096843;28;19975;-76
2023/01/05 05:01:38;;;;;;;;;;;;;;;9.66;100.00;98010.84;5096583;28;19951;-76
2023/01/05 05:04:06;;;;;;;;;;;;;;;9.67;100.00;98007.13;5115736;28;20320;-76
2023/01/05 05:06:32;;;;;;;;;;;;;;;9.68;100.00;97992.75;5100825;28;19931;-76
2023/01/05 05:08:59;;;;;;;;;;;;;;;9.61;100.00;97986.81;5103574;28;19924;-76
2023/01/05 05:11:25;;;;;;;;;;;;;;;9.70;100.00;98011.94;5122556;28;19964;-76
2023/01/05 05:13:51;;;;;;;;;;;;;;;9.76;100.00;98010.94;5102496;28;19945;-76
2023/01/05 05:16:18;;;;;;;;;;;;;;;9.77;100.00;98012.56;5119058;28;19979;-76
2023/01/05 05:18:44;;;;;;;;;;;;;;;9.72;100.00;98022.34;5119556;28;20026;-76
2023/01/05 05:21:12;;;;;;;;;;;;;;;9.67;100.00;98019.66;5107470;28;19923;-76
2023/01/05 05:23:38;;;;;;;;;;;;;;;9.71;100.00;98024.25;5122778;27;19919;-76
2023/01/05 05:26:05;;;;;;;;;;;;;;;9.76;100.00;98018.13;5103485;28;19992;-75
2023/01/05 05:28:31;;;;;;;;;;;;;;;9.75;100.00;98024.50;5103474;28;20298;-76
2023/01/05 05:30:57;;;;;;;;;;;;;;;9.71;100.00;98024.25;5101182;28;20113;-76
2023/01/05 05:33:24;;;;;;;;;;;;;;;9.61;100.00;98010.81;5100018;28;19930;-76
2023/01/05 05:35:50;;;;;;;;;;;;;;;9.70;100.00;98017.28;5102065;28;19987;-76
2023/01/05 05:38:18;;;;;;;;;;;;;;;9.82;100.00;98016.28;5122048;28;19981;-76
2023/01/05 05:40:45;;;;;;;;;;;;;;;9.83;100.00;98025.91;5103246;28;19982;-75
2023/01/05 05:43:11;;;;;;;;;;;;;;;9.77;100.00;98033.06;5117780;28;19962;-76
2023/01/05 05:45:37;;;;;;;;;;;;;;;9.80;100.00;98010.41;5117920;28;19962;-76
2023/01/05 05:48:05;;;;;;;;;;;;;;;9.80;100.00;98015.75;5120965;28;19931;-76
2023/01/05 05:50:31;;;;;;;;;;;;;;;9.73;100.00;98016.78;5121435;28;19950;-75
2023/01/05 05:52:57;;;;;;;;;;;;;;;9.78;100.00;98019.47;5099748;28;20026;-75
2023/01/05 05:55:25;;;;;;;;;;;;;;;9.92;100.00;98021.72;5100726;28;19974;-75
2023/01/05 05:57:51;;;;;;;;;;;;;;;9.82;100.00;98024.28;5119540;28;19996;-76
2023/01/05 06:00:18;;;;;;;;;;;;;;;9.90;100.00;98030.00;5103113;28;19931;-76
2023/01/05 06:02:44;;;;;;;;;;;;;;;9.98;100.00;98036.69;5120422;28;20529;-75
2023/01/05 06:05:11;;;;;;;;;;;;;;;9.97;100.00;98043.09;5117883;28;19959;-75
2023/01/05 06:07:37;;;;;;;;;;;;;;;9.90;100.00;98050.53;5120439;28;19947;-75
2023/01/05 06:10:04;;;;;;;;;;;;;;;10.00;100.00;98048.72;5122162;28;19924;-75
2023/01/05 06:12:32;;;;;;;;;;;;;;;9.92;100.00;98053.72;5102650;28;19928;-75
2023/01/05 06:14:58;;;;;;;;;;;;;;;9.82;100.00;98050.97;5118582;28;20466;-76
2023/01/05 06:17:24;;;;;;;;;;;;;;;9.89;100.00;98056.91;5098489;28;19940;-75
2023/01/05 06:19:51;;;;;;;;;;;;;;;9.86;100.00;98062.75;5100863;28;19951;-75
2023/01/05 06:22:17;;;;;;;;;;;;;;;9.84;100.00;98064.88;5102566;28;20518;-76
2023/01/05 06:24:43;;;;;;;;;;;;;;;10.03;100.00;98066.88;5112041;28;19938;-75
2023/01/05 06:27:11;;;;;;;;;;;;;;;10.03;100.00;98071.41;5094588;28;20246;-76
2023/01/05 06:29:38;;;;;;;;;;;;;;;10.07;100.00;98075.19;5120070;28;20332;-75
2023/01/05 06:32:05;;;;;;;;;;;;;;;9.87;100.00;98067.84;5098685;28;19956;-75
2023/01/05 06:34:31;;;;;;;;;;;;;;;9.88;100.00;98065.94;5117247;28;19951;-76
2023/01/05 06:36:58;;;;;;;;;;;;;;;9.97;100.00;98075.91;5119881;28;19988;-76
2023/01/05 06:39:24;;;;;;;;;;;;;;;9.93;100.00;98079.34;5102189;28;19920;-76
2023/01/05 06:41:51;;;;;;;;;;;;;;;9.98;100.00;98080.19;5134789;27;20013;-77
2023/01/05 06:44:17;;;;;;;;;;;;;;;10.04;100.00;98092.50;5116620;28;19924;-77
2023/01/05 06:46:45;;;;;;;;;;;;;;;10.07;100.00;98099.19;5117431;28;19967;-77
2023/01/05 06:49:13;;;;;;;;;;;;;;;9.95;100.00;98095.91;5101950;28;19924;-77
2023/01/05 06:51:40;;;;;;;;;;;;;;;9.94;100.00;98113.75;5120311;28;19954;-77
2023/01/05 06:54:06;;;;;;;;;;;;;;;10.04;100.00;98107.72;5104763;28;19923;-77
2023/01/05 06:56:33;;;;;;;;;;;;;;;10.04;100.00;98108.53;5121064;28;19987;-77
2023/01/05 06:58:59;;;;;;;;;;;;;;;10.03;100.00;98114.09;5099142;28;19951;-77
2023/01/05 07:01:25;;;;;;;;;;;;;;;10.15;100.00;98117.47;5098376;28;20303;-77
2023/01/05 07:03:53;;;;;;;;;;;;;;;10.00;100.00;98123.41;5100300;28;20002;-77
2023/01/05 07:06:19;;;;;;;;;;;;;;;9.95;100.00;98126.06;5120138;28;19931;-75
2023/01/05 07:08:46;;;;;;;;;;;;;;;9.91;100.00;98132.94;5100921;28;19983;-76
2023/01/05 07:11:13;;;;;;;;;;;;;;;10.02;100.00;98136.53;5098241;28;19962;-76
2023/01/05 07:13:39;;;;;;;;;;;;;;;10.07;100.00;98136.56;5098553;28;19928;-76
2023/01/05 07:16:06;;;;;;;;;;;;;;;9.97;100.00;98141.78;5108565;28;19959;-76
2023/01/05 07:18:32;;;;;;;;;;;;;;;10.12;100.00;98144.63;5108160;28;19983;-76
2023/01/05 07:21:00;;;;;;;;;;;;;;;10.00;100.00;98147.44;5090711;28;20007;-76
2023/01/05 07:23:27;;;;;;;;;;;;;;;10.11;100.00;98157.16;5103013;28;19912;-76
2023/01/05 07:25:54;;;;;;;;;;;;;;;10.06;100.00;98145.59;5097999;28;19920;-76
2023/01/05 07:28:20;;;;;;;;;;;;;;;10.04;100.00;98153.06;5141139;27;19931;-76
2023/01/05 07:30:50;;;;;;;;;;;;;;;9.99;100.00;98153.03;5107502;28;19931;-76
2023/01/05 07:33:16;;;;;;;;;;;;;;;10.07;100.00;98155.22;5109786;28;20342;-76
2023/01/05 07:35:43;;;;;;;;;;;;;;;10.07;100.00;98169.38;5139920;27;19919;-75
2023/01/05 07:38:10;;;;;;;;;;;;;;;10.02;100.00;98169.34;5100070;28;19955;-75
2023/01/05 07:40:37;;;;;;;;;;;;;;;9.94;100.00;98176.97;5099615;28;19931;-76
2023/01/05 07:43:04;;;;;;;;;;;;;;;9.99;100.00;98177.03;5106315;28;19930;-76
2023/01/05 07:45:30;;;;;;;;;;;;;;;9.91;100.00;98180.97;5102110;28;19924;-76
2023/01/05 07:47:58;;;;;;;;;;;;;;;10.04;100.00;98187.75;5098943;28;19927;-76
2023/01/05 07:50:25;;;;;;;;;;;;;;;9.86;100.00;98191.59;5098094;28;19963;-76
2023/01/05 07:52:51;;;;;;;;;;;;;;;10.04;100.00;98207.25;5098668;28;19983;-77
2023/01/05 07:55:19;;;;;;;;;;;;;;;9.99;100.00;98201.88;5104342;28;20055;-77
2023/01/05 07:57:45;;;;;;;;;;;;;;;9.91;100.00;98212.16;5116069;28;19924;-76
2023/01/05 08:00:13;;;;;;;;;;;;;;;10.08;100.00;98215.56;5119021;28;19924;-76
2023/01/05 08:02:40;;;;;;;;;;;;;;;10.12;100.00;98216.69;5100059;28;19923;-76
2023/01/05 08:05:06;;;;;;;;;;;;;;;9.99;100.00;98219.75;5106397;28;19931;-76
2023/01/05 08:07:33;;;;;;;;;;;;;;;10.05;100.00;98226.75;5088070;28;19963;-76
2023/01/05 08:15:29;;;;;;;;;;;;;;;10.00;100.00;98235.47;5121708;28;20019;-77
2023/01/05 08:17:55;;;;;;;;;;;;;;;9.93;100.00;98234.91;5098479;28;19977;-76
2023/01/05 08:20:21;;;;;;;;;;;;;;;9.99;100.00;98233.06;5117922;28;19924;-76
2023/01/05 08:22:49;;;;;;;;;;;;;;;10.06;100.00;98241.66;5098954;28;19951;-74
2023/01/05 08:25:16;;;;;;;;;;;;;;;9.97;100.00;98235.16;5087814;28;20014;-75
2023/01/05 08:27:42;;;;;;;;;;;;;;;9.99;100.00;98241.09;5098309;28;19956;-75
2023/01/05 08:30:12;;;;;;;;;;;;;;;9.86;100.00;98244.94;5119002;28;19963;-76
2023/01/05 08:32:38;;;;;;;;;;;;;;;10.02;100.00;98245.91;5117949;28;19920;-76
2023/01/05 08:35:05;;;;;;;;;;;;;;;10.23;100.00;98245.91;5114603;28;19928;-75
2023/01/05 08:37:31;;;;;;;;;;;;;;;11.61;100.00;98262.63;5096497;28;19927;-75
2023/01/05 08:39:57;;;;;;;;;;;;;;;11.92;100.00;98255.56;5116803;28;19974;-75
2023/01/05 08:42:24;;;;;;;;;;;;;;;12.19;100.00;98248.13;5100171;28;20022;-75
2023/01/05 08:44:50;;;;;;;;;;;;;;;12.31;100.00;98239.88;5099016;28;19959;-76
2023/01/05 08:47:18;;;;;;;;;;;;;;;11.76;100.00;98260.06;5114615;28;19924;-76
2023/01/05 08:49:45;;;;;;;;;;;;;;;11.21;100.00;98259.75;5097531;28;19950;-76
2023/01/05 08:52:12;;;;;;;;;;;;;;;10.88;100.00;98268.06;5100658;28;19942;-76
2023/01/05 08:54:38;;;;;;;;;;;;;;;10.63;100.00;98261.47;5101639;28;19931;-76
2023/01/05 08:57:04;;;;;;;;;;;;;;;10.40;100.00;98261.78;5115513;28;19950;-76
2023/01/05 08:59:31;;;;;;;;;;;;;;;10.34;100.00;98257.47;5097085;28;19987;-76
2023/01/05 09:01:58;;;;;;;;;;;;;;;10.13;100.00;98255.63;5099064;28;19924;-76
2023/01/05 09:04:26;;;;;;;;;;;;;;;10.22;100.00;98259.47;5134442;27;19923;-76
2023/01/05 09:06:53;;;;;;;;;;;;;;;10.15;100.00;98266.91;5117111;28;19983;-76
2023/01/05 09:09:23;;;;;;;;;;;;;;;11.23;100.00;98271.78;5114892;28;20302;-76
2023/01/05 09:11:59;;;;;;;;;;;;;;;12.14;100.00;98271.44;5116405;28;19930;-75
2023/01/05 09:14:25;;;;;;;;;;;;;;;12.43;100.00;98270.69;5102268;28;19948;-75
2023/01/05 09:16:52;;;;;;;;;;;;;;;12.55;100.00;98270.44;5099328;28;19924;-75
2023/01/05 09:19:18;;;;;;;;;;;;;;;12.59;100.00;98258.13;5096317;28;19924;-76
2023/01/05 09:21:46;;;;;;;;;;;;;;;12.74;100.00;98268.84;5115354;28;19923;-75
2023/01/05 09:24:12;;;;;;;;;;;;;;;12.83;100.00;98280.63;5094927;28;19924;-75
2023/01/05 09:26:39;;;;;;;;;;;;;;;12.89;100.00;98279.56;5114243;28;19951;-76
2023/01/05 09:29:05;;;;;;;;;;;;;;;12.93;100.00;98288.69;5114336;28;19924;-75
2023/01/05 09:31:31;;;;;;;;;;;;;;;12.46;100.00;98285.44;5096228;28;19924;-76
2023/01/05 09:33:58;;;;;;;;;;;;;;;12.88;100.00;98287.88;5116507;28;19920;-74
2023/01/05 09:36:39;;;;;;;;;;;;;;;13.05;100.00;98303.69;5117874;28;19923;-74
2023/01/05 09:39:07;;;;;;;;;;;;;;;13.05;100.00;98309.84;5096838;28;19928;-75
2023/01/05 09:41:34;;;;;;;;;;;;;;;12.33;100.00;98326.09;5096442;28;19932;-76
2023/01/05 09:44:03;;;;;;;;;;;;;;;11.87;100.00;98328.63;5117615;28;20331;-75
2023/01/05 09:46:33;;;;;;;;;;;;;;;12.47;100.00;98332.59;5100251;28;19995;-75
2023/01/05 09:49:01;;;;;;;;;;;;;;;12.96;100.00;98322.19;5097695;28;19969;-72
2023/01/05 09:51:28;;;;;;;;;;;;;;;13.07;100.00;98312.25;5116701;28;19931;-72
2023/01/05 09:53:54;;;;;;;;;;;;;;;12.27;100.00;98327.97;5121717;27;19924;-72
2023/01/05 09:56:26;;;;;;;;;;;;;;;11.93;100.00;98336.66;5122033;28;19938;-72
2023/01/05 09:58:53;;;;;;;;;;;;;;;12.92;100.00;98335.31;5120492;28;19931;-72
2023/01/05 10:01:20;;;;;;;;;;;;;;;13.14;100.00;98326.22;5119359;28;19912;-75
2023/01/05 10:03:50;;;;;;;;;;;;;;;13.26;100.00;98321.41;5119825;28;19924;-75
2023/01/05 10:06:17;;;;;;;;;;;;;;;13.38;100.00;98325.41;5103180;28;19927;-75
2023/01/05 10:08:44;;;;;;;;;;;;;;;13.20;100.00;98317.91;5120714;28;19980;-75
2023/01/05 10:14:01;;;;;;;;;;;;;;;11.80;100.00;98330.72;5119940;28;19934;-75
2023/01/05 10:16:28;;;;;;;;;;;;;;;11.57;100.00;98325.78;5120843;28;19923;-75
2023/01/05 10:18:54;;;;;;;;;;;;;;;11.67;100.00;98325.81;5101378;28;19931;-75
2023/01/05 10:21:26;;;;;;;;;;;;;;;12.95;100.00;98321.38;5099178;28;19931;-75
2023/01/05 10:24:03;;;;;;;;;;;;;;;13.26;100.00;98299.94;5099168;28;19931;-75
2023/01/05 10:26:34;;;;;;;;;;;;;;;13.41;100.00;98311.44;5115338;28;19938;-75
2023/01/05 10:29:06;;;;;;;;;;;;;;;13.56;100.00;98321.34;5099590;28;19975;-75
2023/01/05 10:31:40;;;;;;;;;;;;;;;13.60;100.00;98306.31;5117428;28;19935;-76
2023/01/05 10:34:14;;;;;;;;;;;;;;;13.67;100.00;98306.84;5109705;28;20000;-76
2023/01/05 10:36:51;;;;;;;;;;;;;;;13.71;100.00;98315.94;5111191;28;19970;-76
2023/01/05 10:39:23;;;;;;;;;;;;;;;13.79;100.00;98304.66;5115817;28;19951;-75
2023/01/05 10:41:54;;;;;;;;;;;;;;;13.54;100.00;98299.34;5098444;28;19920;-75
2023/01/05 10:44:43;;;;;;;;;;;;;;;12.86;100.00;98298.06;5116616;28;19920;-76
2023/01/05 10:47:10;;;;;;;;;;;;;;;12.35;100.00;98297.19;5125293;28;19966;-75
2023/01/05 10:49:37;;;;;;;;;;;;;;;13.17;100.00;98288.16;5106828;28;19959;-76
2023/01/05 10:52:03;;;;;;;;;;;;;;;13.62;100.00;98290.72;5106494;28;19924;-75
2023/01/05 10:54:35;;;;;;;;;;;;;;;13.58;100.00;98297.75;5123222;27;19958;-76
2023/01/05 10:57:19;;;;;;;;;;;;;;;12.86;100.00;98296.19;5118129;28;19954;-76
2023/01/05 11:00:04;;;;;;;;;;;;;;;12.40;100.00;98292.66;5117446;28;19957;-76
2023/01/05 11:02:34;;;;;;;;;;;;;;;11.87;100.00;98303.72;5120367;27;19935;-75
2023/01/05 11:05:03;;;;;;;;;;;;;;;11.39;100.00;98302.91;5099493;28;19959;-75
2023/01/05 11:07:29;;;;;;;;;;;;;;;11.48;100.00;98315.81;5116464;28;19935;-75
2023/01/05 11:09:56;;;;;;;;;;;;;;;11.45;100.00;98333.16;5118794;28;19931;-75
2023/01/05 11:12:24;;;;;;;;;;;;;;;11.50;100.00;98329.72;5101800;28;19958;-75
2023/01/05 11:14:52;;;;;;;;;;;;;;;11.45;100.00;98322.47;5118368;28;19931;-75
2023/01/05 11:17:20;;;;;;;;;;;;;;;11.39;100.00;98324.31;5116223;28;19924;-75
2023/01/05 11:19:50;;;;;;;;;;;;;;;11.57;100.00;98327.63;5117194;28;19920;-75
2023/01/05 11:22:30;;;;;;;;;;;;;;;11.52;100.00;98316.88;5119933;28;20462;-75
2023/01/05 11:25:12;;;;;;;;;;;;;;;11.33;100.00;98324.53;5109263;28;19956;-75
2023/01/05 11:27:39;;;;;;;;;;;;;;;11.39;100.00;98324.31;5117120;28;19924;-76
2023/01/05 11:30:18;;;;;;;;;;;;;;;11.29;100.00;98328.78;5101613;28;19930;-75
2023/01/05 11:32:45;;;;;;;;;;;;;;;11.44;100.00;98325.41;5103371;28;19980;-75
2023/01/05 11:35:18;;;;;;;;;;;;;;;11.35;100.00;98330.44;5118052;28;19928;-75
2023/01/05 11:37:45;;;;;;;;;;;;;;;11.42;100.00;98322.19;5098917;28;19924;-75
2023/01/05 11:40:15;;;;;;;;;;;;;;;11.45;100.00;98327.81;5101426;28;19923;-75
2023/01/05 11:42:43;;;;;;;;;;;;;;;11.34;100.00;98320.81;5101683;28;20056;-75
2023/01/05 11:45:19;;;;;;;;;;;;;;;11.30;100.00;98333.06;5097361;28;20058;-74
2023/01/05 11:47:47;;;;;;;;;;;;;;;11.27;100.00;98329.03;5116531;28;19931;-74
2023/01/05 11:50:16;;;;;;;;;;;;;;;11.24;100.00;98329.56;5101131;28;20014;-74
2023/01/05 11:52:45;;;;;;;;;;;;;;;11.17;100.00;98338.88;5119241;28;19928;-74
2023/01/05 11:55:22;;;;;;;;;;;;;;;11.24;100.00;98328.75;5116826;27;20080;-74
2023/01/05 11:57:49;;;;;;;;;;;;;;;11.25;100.00;98333.84;5116655;28;20147;-74
2023/01/05 12:00:22;;;;;;;;;;;;;;;11.30;100.00;98328.53;5119075;28;19958;-74
2023/01/05 12:03:12;;;;;;;;;;;;;;;11.25;100.00;98333.03;5117476;28;19965;-74
2023/01/05 12:05:44;;;;;;;;;;;;;;;11.16;100.00;98324.69;5096625;28;19924;-74
2023/01/05 12:08:15;;;;;;;;;;;;;;;11.13;100.00;98329.75;5097049;28;19924;-74
2023/01/05 12:10:47;;;;;;;;;;;;;;;11.08;100.00;98325.16;5097090;28;19975;-74
2023/01/05 12:13:23;;;;;;;;;;;;;;;11.15;100.00;98327.59;5118271;28;19930;-74
2023/01/05 12:16:07;;;;;;;;;;;;;;;11.14;100.00;98326.03;5117598;28;19924;-74
2023/01/05 12:18:54;;;;;;;;;;;;;;;11.04;100.00;98315.25;5106324;28;20365;-75
2023/01/05 12:21:22;;;;;;;;;;;;;;;11.05;100.00;98316.88;5117651;28;19927;-74
2023/01/05 12:23:57;;;;;;;;;;;;;;;10.94;100.00;98315.97;5117672;28;19940;-75
2023/01/05 12:26:27;;;;;;;;;;;;;;;11.05;100.00;98311.53;5100551;28;19951;-75
2023/01/05 12:29:13;;;;;;;;;;;;;;;11.05;100.00;98317.66;5098814;28;19919;-75
2023/01/05 12:31:48;;;;;;;;;;;;;;;11.23;100.00;98329.81;5097529;28;19924;-75
2023/01/05 12:34:28;;;;;;;;;;;;;;;11.22;100.00;98328.22;5106118;28;20316;-75
2023/01/05 12:37:06;;;;;;;;;;;;;;;11.13;100.00;98321.72;5107028;28;19931;-76
2023/01/05 12:39:40;;;;;;;;;;;;;;;11.23;100.00;98327.16;5089220;28;19928;-75
2023/01/05 12:42:16;;;;;;;;;;;;;;;11.28;100.00;98324.50;5097411;28;19924;-75
2023/01/05 12:44:51;;;;;;;;;;;;;;;11.29;100.00;98336.81;5089350;28;19920;-76
2023/01/05 12:47:36;;;;;;;;;;;;;;;11.30;100.00;98341.09;5106671;28;19920;-75
2023/01/05 12:50:07;;;;;;;;;;;;;;;11.31;100.00;98338.16;5099998;28;19954;-75
2023/01/05 12:52:35;;;;;;;;;;;;;;;11.25;100.00;98317.81;5118792;28;19931;-75
2023/01/05 12:55:05;;;;;;;;;;;;;;;11.08;100.00;98329.72;5098765;28;19953;-74
2023/01/05 12:57:34;;;;;;;;;;;;;;;11.28;100.00;98328.00;5096533;28;19932;-74
2023/01/05 13:00:03;;;;;;;;;;;;;;;11.15;100.00;98336.44;5117894;28;19971;-74
2023/01/05 13:02:32;;;;;;;;;;;;;;;11.33;100.00;98335.22;5100438;28;20583;-74
2023/01/05 13:05:02;;;;;;;;;;;;;;;11.06;100.00;98324.63;5099310;28;19979;-74
2023/01/05 13:07:32;;;;;;;;;;;;;;;11.10;100.00;98330.25;5116212;28;19924;-75
2023/01/05 13:10:00;;;;;;;;;;;;;;;11.26;100.00;98323.97;5117960;28;19924;-74
2023/01/05 13:12:28;;;;;;;;;;;;;;;11.30;100.00;98315.16;5100741;28;19963;-74
2023/01/05 13:15:12;;;;;;;;;;;;;;;11.18;100.00;98313.72;5116689;28;19920;-74
2023/01/05 13:17:41;;;;;;;;;;;;;;;11.14;100.00;98309.97;5115430;28;19924;-74
2023/01/05 13:20:16;;;;;;;;;;;;;;;11.13;100.00;98313.72;5115253;28;19963;-74
2023/01/05 13:22:44;;;;;;;;;;;;;;;11.30;100.00;98319.69;5115903;28;20352;-74
2023/01/05 13:25:15;;;;;;;;;;;;;;;11.04;100.00;98326.75;5116722;28;19954;-73